Impacts TAF Board
For situational awareness. Not to be used for flight planning purposes.
IDs:

KEWR - Newark Intl, NJ, US

Issued at 0539 UTC 23 Feb 2019
Updated at 0734 UTC 23 Feb 2019
Potential Impact None Slight Moderate High
Time<<24/08Z 24/09Z 24/10Z 24/11Z 24/12Z 24/13Z 24/14Z 24/15Z 24/16Z 24/17Z 24/18Z 24/19Z 24/20Z
Type PRVL PRVL PRVL PRVL
VIS 5 2 2 2
CIG 15 6 6 6
Cover OVC OVC OVC OVC
FltCat MVFR IFR IFR IFR
WX -RA BR RA BR RA BR RA BR
WDir 60 60 60 60
WSpd 8 10 10 10
WGst -- -- -- --
Raw TAF
KEWR 230539Z 2306/2412 36007KT P6SM BKN250
  FM230900 02005KT P6SM BKN250
  FM231600 VRB04KT P6SM BKN250
  FM231800 11006KT P6SM FEW030 BKN200
  FM240100 08005KT P6SM VCSH SCT030 OVC050
  FM240400 07007KT 6SM -RA SCT010 OVC025
  FM240600 06008KT 5SM -RA BR OVC015
  FM240900 06010KT 2SM RA BR OVC006 WS020/13040KT


METAR Board
Radar Display
Forecast Discussion
For situational awareness. Not to be used for flight planning purposes.